sensor_id;sensor_type;location;lat;lon;timestamp;P1;durP1;ratioP1;P2;durP2;ratioP2
57023;SDS011;42916;54.346;18.562;2023-07-22T00:00:01;7.40;;;3.90;;
57023;SDS011;42916;54.346;18.562;2023-07-22T00:02:32;7.70;;;3.70;;
57023;SDS011;42916;54.346;18.562;2023-07-22T00:04:58;5.90;;;3.80;;
57023;SDS011;42916;54.346;18.562;2023-07-22T00:07:25;7.60;;;3.80;;
57023;SDS011;42916;54.346;18.562;2023-07-22T00:09:52;9.10;;;3.50;;
57023;SDS011;42916;54.346;18.562;2023-07-22T00:12:19;5.00;;;3.40;;
57023;SDS011;42916;54.346;18.562;2023-07-22T00:14:46;4.90;;;3.20;;
57023;SDS011;42916;54.346;18.562;2023-07-22T00:17:13;8.00;;;3.70;;
57023;SDS011;42916;54.346;18.562;2023-07-22T00:19:40;5.60;;;3.60;;
57023;SDS011;42916;54.346;18.562;2023-07-22T00:22:06;4.60;;;3.00;;
57023;SDS011;42916;54.346;18.562;2023-07-22T00:24:33;4.20;;;2.90;;
57023;SDS011;42916;54.346;18.562;2023-07-22T00:27:00;5.10;;;2.90;;
57023;SDS011;42916;54.346;18.562;2023-07-22T00:29:27;4.80;;;3.10;;
57023;SDS011;42916;54.346;18.562;2023-07-22T00:31:53;3.70;;;2.40;;
57023;SDS011;42916;54.346;18.562;2023-07-22T00:34:20;5.90;;;3.20;;
57023;SDS011;42916;54.346;18.562;2023-07-22T00:36:47;5.40;;;2.50;;
57023;SDS011;42916;54.346;18.562;2023-07-22T00:39:14;6.00;;;2.80;;
57023;SDS011;42916;54.346;18.562;2023-07-22T00:41:41;5.20;;;2.70;;
57023;SDS011;42916;54.346;18.562;2023-07-22T00:44:11;4.30;;;3.10;;
57023;SDS011;42916;54.346;18.562;2023-07-22T00:46:39;6.00;;;2.90;;
57023;SDS011;42916;54.346;18.562;2023-07-22T00:49:06;4.10;;;2.80;;
57023;SDS011;42916;54.346;18.562;2023-07-22T00:51:34;5.30;;;3.00;;
57023;SDS011;42916;54.346;18.562;2023-07-22T00:54:01;4.50;;;2.80;;
57023;SDS011;42916;54.346;18.562;2023-07-22T00:56:29;4.00;;;2.60;;
57023;SDS011;42916;54.346;18.562;2023-07-22T00:59:00;4.30;;;2.50;;
57023;SDS011;42916;54.346;18.562;2023-07-22T01:01:27;3.90;;;2.30;;
57023;SDS011;42916;54.346;18.562;2023-07-22T01:03:54;4.90;;;2.70;;
57023;SDS011;42916;54.346;18.562;2023-07-22T01:06:21;5.50;;;2.60;;
57023;SDS011;42916;54.346;18.562;2023-07-22T01:08:48;6.20;;;2.40;;
57023;SDS011;42916;54.346;18.562;2023-07-22T01:11:15;3.30;;;2.10;;
57023;SDS011;42916;54.346;18.562;2023-07-22T01:13:42;3.80;;;2.30;;
57023;SDS011;42916;54.346;18.562;2023-07-22T01:16:09;4.60;;;2.40;;
57023;SDS011;42916;54.346;18.562;2023-07-22T01:18:36;3.30;;;2.70;;
57023;SDS011;42916;54.346;18.562;2023-07-22T01:21:05;4.20;;;2.60;;
57023;SDS011;42916;54.346;18.562;2023-07-22T01:26:00;5.00;;;2.40;;
57023;SDS011;42916;54.346;18.562;2023-07-22T01:28:29;4.50;;;2.50;;
57023;SDS011;42916;54.346;18.562;2023-07-22T01:30:55;3.70;;;2.70;;
57023;SDS011;42916;54.346;18.562;2023-07-22T01:33:22;3.80;;;2.60;;
57023;SDS011;42916;54.346;18.562;2023-07-22T01:35:49;4.30;;;2.50;;
57023;SDS011;42916;54.346;18.562;2023-07-22T01:38:16;3.80;;;2.20;;
57023;SDS011;42916;54.346;18.562;2023-07-22T01:40:43;4.00;;;2.40;;
57023;SDS011;42916;54.346;18.562;2023-07-22T01:43:10;6.70;;;2.90;;
57023;SDS011;42916;54.346;18.562;2023-07-22T01:45:37;3.10;;;2.60;;
57023;SDS011;42916;54.346;18.562;2023-07-22T01:48:05;3.20;;;2.50;;
57023;SDS011;42916;54.346;18.562;2023-07-22T01:50:32;4.70;;;2.70;;
57023;SDS011;42916;54.346;18.562;2023-07-22T01:52:59;4.80;;;3.10;;
57023;SDS011;42916;54.346;18.562;2023-07-22T01:55:26;3.70;;;2.70;;
57023;SDS011;42916;54.346;18.562;2023-07-22T01:57:53;3.70;;;2.40;;
57023;SDS011;42916;54.346;18.562;2023-07-22T02:00:21;3.50;;;2.30;;
57023;SDS011;42916;54.346;18.562;2023-07-22T02:02:48;3.40;;;2.60;;
57023;SDS011;42916;54.346;18.562;2023-07-22T02:05:14;3.90;;;2.70;;
57023;SDS011;42916;54.346;18.562;2023-07-22T02:07:42;4.20;;;2.70;;
57023;SDS011;42916;54.346;18.562;2023-07-22T02:10:09;3.50;;;2.60;;
57023;SDS011;42916;54.346;18.562;2023-07-22T02:12:36;5.00;;;2.80;;
57023;SDS011;42916;54.346;18.562;2023-07-22T02:15:03;3.50;;;2.70;;
57023;SDS011;42916;54.346;18.562;2023-07-22T02:17:30;5.40;;;3.10;;
57023;SDS011;42916;54.346;18.562;2023-07-22T02:19:57;4.70;;;2.80;;
57023;SDS011;42916;54.346;18.562;2023-07-22T02:22:24;4.10;;;3.30;;
57023;SDS011;42916;54.346;18.562;2023-07-22T02:24:51;4.00;;;3.00;;
57023;SDS011;42916;54.346;18.562;2023-07-22T02:27:17;4.00;;;2.70;;
57023;SDS011;42916;54.346;18.562;2023-07-22T02:29:44;4.70;;;2.70;;
57023;SDS011;42916;54.346;18.562;2023-07-22T02:32:11;4.90;;;2.70;;
57023;SDS011;42916;54.346;18.562;2023-07-22T02:34:38;4.80;;;2.70;;
57023;SDS011;42916;54.346;18.562;2023-07-22T02:37:04;3.70;;;2.30;;
57023;SDS011;42916;54.346;18.562;2023-07-22T02:39:31;5.10;;;2.70;;
57023;SDS011;42916;54.346;18.562;2023-07-22T02:41:58;3.40;;;2.50;;
57023;SDS011;42916;54.346;18.562;2023-07-22T02:44:25;4.20;;;2.30;;
57023;SDS011;42916;54.346;18.562;2023-07-22T02:46:51;4.10;;;2.30;;
57023;SDS011;42916;54.346;18.562;2023-07-22T02:49:19;4.20;;;2.20;;
57023;SDS011;42916;54.346;18.562;2023-07-22T02:51:45;4.30;;;3.10;;
57023;SDS011;42916;54.346;18.562;2023-07-22T02:54:12;4.10;;;2.50;;
57023;SDS011;42916;54.346;18.562;2023-07-22T02:56:40;5.00;;;2.90;;
57023;SDS011;42916;54.346;18.562;2023-07-22T02:59:07;4.90;;;2.50;;
57023;SDS011;42916;54.346;18.562;2023-07-22T03:01:36;5.30;;;2.80;;
57023;SDS011;42916;54.346;18.562;2023-07-22T03:04:02;3.80;;;2.60;;
57023;SDS011;42916;54.346;18.562;2023-07-22T03:06:30;4.40;;;2.80;;
57023;SDS011;42916;54.346;18.562;2023-07-22T03:08:57;3.20;;;2.50;;
57023;SDS011;42916;54.346;18.562;2023-07-22T03:11:24;5.10;;;2.50;;
57023;SDS011;42916;54.346;18.562;2023-07-22T03:13:51;4.00;;;2.40;;
57023;SDS011;42916;54.346;18.562;2023-07-22T03:16:18;5.00;;;3.00;;
57023;SDS011;42916;54.346;18.562;2023-07-22T03:18:45;4.10;;;2.40;;
57023;SDS011;42916;54.346;18.562;2023-07-22T03:21:12;3.80;;;2.60;;
57023;SDS011;42916;54.346;18.562;2023-07-22T03:23:39;4.30;;;2.60;;
57023;SDS011;42916;54.346;18.562;2023-07-22T03:26:06;3.10;;;2.30;;
57023;SDS011;42916;54.346;18.562;2023-07-22T03:28:33;3.70;;;2.40;;
57023;SDS011;42916;54.346;18.562;2023-07-22T03:31:00;2.70;;;2.40;;
57023;SDS011;42916;54.346;18.562;2023-07-22T03:33:27;3.40;;;2.00;;
57023;SDS011;42916;54.346;18.562;2023-07-22T03:35:53;3.40;;;2.20;;
57023;SDS011;42916;54.346;18.562;2023-07-22T03:38:20;2.40;;;2.10;;
57023;SDS011;42916;54.346;18.562;2023-07-22T03:40:47;2.60;;;2.10;;
57023;SDS011;42916;54.346;18.562;2023-07-22T03:43:14;3.90;;;2.10;;
57023;SDS011;42916;54.346;18.562;2023-07-22T03:45:40;3.10;;;2.20;;
57023;SDS011;42916;54.346;18.562;2023-07-22T03:48:07;2.40;;;1.80;;
57023;SDS011;42916;54.346;18.562;2023-07-22T03:50:35;1.90;;;1.80;;
57023;SDS011;42916;54.346;18.562;2023-07-22T03:53:02;3.50;;;2.20;;
57023;SDS011;42916;54.346;18.562;2023-07-22T03:55:29;2.50;;;2.10;;
57023;SDS011;42916;54.346;18.562;2023-07-22T03:57:56;2.30;;;2.10;;
57023;SDS011;42916;54.346;18.562;2023-07-22T04:00:22;2.30;;;1.70;;
57023;SDS011;42916;54.346;18.562;2023-07-22T04:02:49;1.70;;;1.60;;
57023;SDS011;42916;54.346;18.562;2023-07-22T04:05:16;1.90;;;1.60;;
57023;SDS011;42916;54.346;18.562;2023-07-22T04:07:44;1.60;;;1.30;;
57023;SDS011;42916;54.346;18.562;2023-07-22T04:10:11;4.30;;;1.70;;
57023;SDS011;42916;54.346;18.562;2023-07-22T04:12:38;2.50;;;1.70;;
57023;SDS011;42916;54.346;18.562;2023-07-22T04:15:05;2.20;;;1.80;;
57023;SDS011;42916;54.346;18.562;2023-07-22T04:17:32;2.60;;;1.80;;
57023;SDS011;42916;54.346;18.562;2023-07-22T04:19:59;2.90;;;1.80;;
57023;SDS011;42916;54.346;18.562;2023-07-22T04:22:25;2.70;;;1.80;;
57023;SDS011;42916;54.346;18.562;2023-07-22T04:24:52;2.90;;;1.80;;
57023;SDS011;42916;54.346;18.562;2023-07-22T04:27:20;2.50;;;1.50;;
57023;SDS011;42916;54.346;18.562;2023-07-22T04:29:47;3.60;;;1.50;;
57023;SDS011;42916;54.346;18.562;2023-07-22T04:32:14;2.00;;;1.70;;
57023;SDS011;42916;54.346;18.562;2023-07-22T04:34:40;1.50;;;1.40;;
57023;SDS011;42916;54.346;18.562;2023-07-22T04:37:07;1.80;;;1.70;;
57023;SDS011;42916;54.346;18.562;2023-07-22T04:39:34;2.50;;;1.90;;
57023;SDS011;42916;54.346;18.562;2023-07-22T04:42:01;2.30;;;1.70;;
57023;SDS011;42916;54.346;18.562;2023-07-22T04:44:28;2.70;;;2.00;;
57023;SDS011;42916;54.346;18.562;2023-07-22T04:46:55;2.10;;;1.80;;
57023;SDS011;42916;54.346;18.562;2023-07-22T04:49:22;3.20;;;1.90;;
57023;SDS011;42916;54.346;18.562;2023-07-22T04:51:49;2.80;;;2.00;;
57023;SDS011;42916;54.346;18.562;2023-07-22T04:54:16;3.50;;;2.00;;
57023;SDS011;42916;54.346;18.562;2023-07-22T04:56:43;3.30;;;2.00;;
57023;SDS011;42916;54.346;18.562;2023-07-22T04:59:10;2.50;;;1.80;;
57023;SDS011;42916;54.346;18.562;2023-07-22T05:01:37;3.50;;;2.20;;
57023;SDS011;42916;54.346;18.562;2023-07-22T05:04:03;3.10;;;2.00;;
57023;SDS011;42916;54.346;18.562;2023-07-22T05:06:31;3.80;;;2.00;;
57023;SDS011;42916;54.346;18.562;2023-07-22T05:08:58;3.10;;;1.80;;
57023;SDS011;42916;54.346;18.562;2023-07-22T05:11:25;2.70;;;1.80;;
57023;SDS011;42916;54.346;18.562;2023-07-22T05:13:51;2.10;;;1.90;;
57023;SDS011;42916;54.346;18.562;2023-07-22T05:16:18;3.30;;;2.00;;
57023;SDS011;42916;54.346;18.562;2023-07-22T05:18:45;2.30;;;1.90;;
57023;SDS011;42916;54.346;18.562;2023-07-22T05:21:12;2.30;;;2.10;;
57023;SDS011;42916;54.346;18.562;2023-07-22T05:23:39;3.40;;;2.10;;
57023;SDS011;42916;54.346;18.562;2023-07-22T05:26:05;4.10;;;2.20;;
57023;SDS011;42916;54.346;18.562;2023-07-22T05:28:32;2.10;;;1.90;;
57023;SDS011;42916;54.346;18.562;2023-07-22T05:30:59;2.30;;;2.10;;
57023;SDS011;42916;54.346;18.562;2023-07-22T05:33:25;3.60;;;2.50;;
57023;SDS011;42916;54.346;18.562;2023-07-22T05:35:52;4.40;;;2.20;;
57023;SDS011;42916;54.346;18.562;2023-07-22T05:38:19;3.20;;;2.40;;
57023;SDS011;42916;54.346;18.562;2023-07-22T05:40:45;3.60;;;2.30;;
57023;SDS011;42916;54.346;18.562;2023-07-22T05:43:12;4.10;;;2.50;;
57023;SDS011;42916;54.346;18.562;2023-07-22T05:45:39;2.80;;;2.20;;
57023;SDS011;42916;54.346;18.562;2023-07-22T05:48:06;2.30;;;2.00;;
57023;SDS011;42916;54.346;18.562;2023-07-22T05:50:32;2.70;;;2.00;;
57023;SDS011;42916;54.346;18.562;2023-07-22T05:52:59;2.60;;;2.20;;
57023;SDS011;42916;54.346;18.562;2023-07-22T05:55:26;2.10;;;1.80;;
57023;SDS011;42916;54.346;18.562;2023-07-22T05:57:53;4.10;;;1.80;;
57023;SDS011;42916;54.346;18.562;2023-07-22T06:00:20;3.20;;;1.70;;
57023;SDS011;42916;54.346;18.562;2023-07-22T06:02:47;3.30;;;1.90;;
57023;SDS011;42916;54.346;18.562;2023-07-22T06:05:15;3.00;;;2.10;;
57023;SDS011;42916;54.346;18.562;2023-07-22T06:07:42;2.80;;;2.50;;
57023;SDS011;42916;54.346;18.562;2023-07-22T06:10:09;3.00;;;1.90;;
57023;SDS011;42916;54.346;18.562;2023-07-22T06:12:36;4.10;;;2.10;;
57023;SDS011;42916;54.346;18.562;2023-07-22T06:15:05;3.00;;;1.80;;
57023;SDS011;42916;54.346;18.562;2023-07-22T06:17:32;3.10;;;2.10;;
57023;SDS011;42916;54.346;18.562;2023-07-22T06:19:58;5.90;;;2.40;;
57023;SDS011;42916;54.346;18.562;2023-07-22T06:22:25;3.20;;;2.40;;
57023;SDS011;42916;54.346;18.562;2023-07-22T06:24:52;2.70;;;2.20;;
57023;SDS011;42916;54.346;18.562;2023-07-22T06:27:19;2.60;;;2.40;;
57023;SDS011;42916;54.346;18.562;2023-07-22T06:29:45;2.70;;;2.00;;
57023;SDS011;42916;54.346;18.562;2023-07-22T06:32:12;3.50;;;2.20;;
57023;SDS011;42916;54.346;18.562;2023-07-22T06:34:39;2.30;;;2.10;;
57023;SDS011;42916;54.346;18.562;2023-07-22T06:37:06;2.80;;;2.50;;
57023;SDS011;42916;54.346;18.562;2023-07-22T06:39:32;5.50;;;2.40;;
57023;SDS011;42916;54.346;18.562;2023-07-22T06:41:59;2.70;;;2.50;;
57023;SDS011;42916;54.346;18.562;2023-07-22T06:44:26;3.10;;;2.60;;
57023;SDS011;42916;54.346;18.562;2023-07-22T06:46:53;5.00;;;2.50;;
57023;SDS011;42916;54.346;18.562;2023-07-22T06:49:19;4.60;;;2.50;;
57023;SDS011;42916;54.346;18.562;2023-07-22T06:51:46;3.70;;;2.30;;
57023;SDS011;42916;54.346;18.562;2023-07-22T06:54:13;3.00;;;2.70;;
57023;SDS011;42916;54.346;18.562;2023-07-22T06:56:39;4.00;;;2.60;;
57023;SDS011;42916;54.346;18.562;2023-07-22T06:59:06;4.10;;;2.70;;
57023;SDS011;42916;54.346;18.562;2023-07-22T07:01:33;3.90;;;2.80;;
57023;SDS011;42916;54.346;18.562;2023-07-22T07:04:00;4.50;;;2.70;;
57023;SDS011;42916;54.346;18.562;2023-07-22T07:06:28;3.80;;;2.40;;
57023;SDS011;42916;54.346;18.562;2023-07-22T07:08:55;2.70;;;2.40;;
57023;SDS011;42916;54.346;18.562;2023-07-22T07:11:22;3.50;;;2.30;;
57023;SDS011;42916;54.346;18.562;2023-07-22T07:13:48;2.70;;;2.20;;
57023;SDS011;42916;54.346;18.562;2023-07-22T07:16:26;3.30;;;2.50;;
57023;SDS011;42916;54.346;18.562;2023-07-22T07:21:21;3.40;;;2.70;;
57023;SDS011;42916;54.346;18.562;2023-07-22T07:23:49;3.20;;;2.50;;
57023;SDS011;42916;54.346;18.562;2023-07-22T07:26:16;3.10;;;2.80;;
57023;SDS011;42916;54.346;18.562;2023-07-22T07:28:43;3.90;;;2.70;;
57023;SDS011;42916;54.346;18.562;2023-07-22T07:31:10;2.90;;;2.40;;
57023;SDS011;42916;54.346;18.562;2023-07-22T07:33:37;2.70;;;2.00;;
57023;SDS011;42916;54.346;18.562;2023-07-22T07:36:04;2.30;;;2.10;;
57023;SDS011;42916;54.346;18.562;2023-07-22T07:38:31;2.60;;;1.90;;
57023;SDS011;42916;54.346;18.562;2023-07-22T07:40:59;2.40;;;2.20;;
57023;SDS011;42916;54.346;18.562;2023-07-22T07:48:38;3.90;;;2.10;;
57023;SDS011;42916;54.346;18.562;2023-07-22T07:51:05;2.60;;;2.10;;
57023;SDS011;42916;54.346;18.562;2023-07-22T07:53:32;3.20;;;2.10;;
57023;SDS011;42916;54.346;18.562;2023-07-22T07:55:59;2.90;;;2.10;;
57023;SDS011;42916;54.346;18.562;2023-07-22T07:58:26;4.20;;;2.40;;
57023;SDS011;42916;54.346;18.562;2023-07-22T08:00:52;2.90;;;2.00;;
57023;SDS011;42916;54.346;18.562;2023-07-22T08:03:19;2.70;;;2.30;;
57023;SDS011;42916;54.346;18.562;2023-07-22T08:05:47;3.20;;;2.40;;
57023;SDS011;42916;54.346;18.562;2023-07-22T08:08:13;3.60;;;2.10;;
57023;SDS011;42916;54.346;18.562;2023-07-22T08:10:40;3.30;;;2.30;;
57023;SDS011;42916;54.346;18.562;2023-07-22T08:13:08;3.10;;;2.50;;
57023;SDS011;42916;54.346;18.562;2023-07-22T08:15:35;2.80;;;2.40;;
57023;SDS011;42916;54.346;18.562;2023-07-22T08:18:02;4.10;;;2.70;;
57023;SDS011;42916;54.346;18.562;2023-07-22T08:20:30;3.00;;;2.60;;
57023;SDS011;42916;54.346;18.562;2023-07-22T08:22:57;3.50;;;2.80;;
57023;SDS011;42916;54.346;18.562;2023-07-22T08:25:23;3.20;;;2.60;;
57023;SDS011;42916;54.346;18.562;2023-07-22T08:27:50;4.50;;;2.70;;
57023;SDS011;42916;54.346;18.562;2023-07-22T08:30:17;4.50;;;2.80;;
57023;SDS011;42916;54.346;18.562;2023-07-22T08:32:43;3.90;;;2.70;;
57023;SDS011;42916;54.346;18.562;2023-07-22T08:35:10;3.10;;;2.80;;
57023;SDS011;42916;54.346;18.562;2023-07-22T08:37:37;3.30;;;3.00;;
57023;SDS011;42916;54.346;18.562;2023-07-22T08:40:04;3.90;;;3.00;;
57023;SDS011;42916;54.346;18.562;2023-07-22T08:42:31;3.50;;;2.70;;
57023;SDS011;42916;54.346;18.562;2023-07-22T08:44:59;4.50;;;2.90;;
57023;SDS011;42916;54.346;18.562;2023-07-22T08:47:28;3.60;;;2.80;;
57023;SDS011;42916;54.346;18.562;2023-07-22T08:49:57;3.60;;;2.60;;
57023;SDS011;42916;54.346;18.562;2023-07-22T08:52:27;3.10;;;2.70;;
57023;SDS011;42916;54.346;18.562;2023-07-22T08:54:54;3.60;;;2.90;;
57023;SDS011;42916;54.346;18.562;2023-07-22T08:57:21;3.00;;;2.70;;
57023;SDS011;42916;54.346;18.562;2023-07-22T08:59:48;3.80;;;2.90;;
57023;SDS011;42916;54.346;18.562;2023-07-22T09:02:15;3.40;;;3.00;;
57023;SDS011;42916;54.346;18.562;2023-07-22T09:04:43;4.40;;;3.20;;
57023;SDS011;42916;54.346;18.562;2023-07-22T09:07:11;4.20;;;3.20;;
57023;SDS011;42916;54.346;18.562;2023-07-22T09:09:38;3.80;;;3.10;;
57023;SDS011;42916;54.346;18.562;2023-07-22T09:12:05;4.20;;;3.30;;
57023;SDS011;42916;54.346;18.562;2023-07-22T09:14:33;5.90;;;4.60;;
57023;SDS011;42916;54.346;18.562;2023-07-22T09:17:01;4.90;;;4.10;;
57023;SDS011;42916;54.346;18.562;2023-07-22T09:19:29;4.10;;;3.50;;
57023;SDS011;42916;54.346;18.562;2023-07-22T09:21:56;5.00;;;4.50;;
57023;SDS011;42916;54.346;18.562;2023-07-22T09:24:25;5.30;;;4.70;;
57023;SDS011;42916;54.346;18.562;2023-07-22T09:26:54;9.30;;;4.70;;
57023;SDS011;42916;54.346;18.562;2023-07-22T09:29:34;5.80;;;4.00;;
57023;SDS011;42916;54.346;18.562;2023-07-22T09:32:02;5.90;;;5.10;;
57023;SDS011;42916;54.346;18.562;2023-07-22T09:34:29;9.40;;;6.10;;
57023;SDS011;42916;54.346;18.562;2023-07-22T09:36:57;6.20;;;4.70;;
57023;SDS011;42916;54.346;18.562;2023-07-22T09:39:30;4.60;;;3.90;;
57023;SDS011;42916;54.346;18.562;2023-07-22T09:41:56;3.40;;;3.10;;
57023;SDS011;42916;54.346;18.562;2023-07-22T09:44:29;4.00;;;2.70;;
57023;SDS011;42916;54.346;18.562;2023-07-22T09:46:57;3.30;;;2.60;;
57023;SDS011;42916;54.346;18.562;2023-07-22T09:49:24;4.30;;;2.50;;
57023;SDS011;42916;54.346;18.562;2023-07-22T09:51:51;3.00;;;2.10;;
57023;SDS011;42916;54.346;18.562;2023-07-22T09:54:19;2.80;;;2.40;;
57023;SDS011;42916;54.346;18.562;2023-07-22T09:56:48;2.90;;;2.10;;
57023;SDS011;42916;54.346;18.562;2023-07-22T09:59:17;2.10;;;1.90;;
57023;SDS011;42916;54.346;18.562;2023-07-22T10:01:46;2.30;;;2.10;;
57023;SDS011;42916;54.346;18.562;2023-07-22T10:04:17;4.00;;;2.10;;
57023;SDS011;42916;54.346;18.562;2023-07-22T10:06:48;3.50;;;2.00;;
57023;SDS011;42916;54.346;18.562;2023-07-22T10:09:15;3.60;;;2.10;;
57023;SDS011;42916;54.346;18.562;2023-07-22T10:11:43;3.10;;;1.90;;
57023;SDS011;42916;54.346;18.562;2023-07-22T10:14:10;3.50;;;2.00;;
57023;SDS011;42916;54.346;18.562;2023-07-22T10:16:40;2.60;;;2.00;;
57023;SDS011;42916;54.346;18.562;2023-07-22T10:19:07;2.00;;;1.80;;
57023;SDS011;42916;54.346;18.562;2023-07-22T10:21:36;1.80;;;1.60;;
57023;SDS011;42916;54.346;18.562;2023-07-22T10:24:04;2.30;;;1.90;;
57023;SDS011;42916;54.346;18.562;2023-07-22T10:26:32;2.30;;;2.00;;
57023;SDS011;42916;54.346;18.562;2023-07-22T10:28:59;2.60;;;1.70;;
57023;SDS011;42916;54.346;18.562;2023-07-22T10:31:29;2.90;;;1.90;;
57023;SDS011;42916;54.346;18.562;2023-07-22T10:33:57;2.00;;;1.70;;
57023;SDS011;42916;54.346;18.562;2023-07-22T10:36:27;2.70;;;1.80;;
57023;SDS011;42916;54.346;18.562;2023-07-22T10:38:56;2.50;;;1.80;;
57023;SDS011;42916;54.346;18.562;2023-07-22T10:41:24;4.60;;;2.30;;
57023;SDS011;42916;54.346;18.562;2023-07-22T10:43:57;2.00;;;1.80;;
57023;SDS011;42916;54.346;18.562;2023-07-22T10:46:33;2.10;;;1.60;;
57023;SDS011;42916;54.346;18.562;2023-07-22T10:49:14;5.70;;;1.90;;
57023;SDS011;42916;54.346;18.562;2023-07-22T10:51:49;1.80;;;1.70;;
57023;SDS011;42916;54.346;18.562;2023-07-22T10:54:33;1.80;;;1.70;;
57023;SDS011;42916;54.346;18.562;2023-07-22T10:57:22;2.60;;;1.70;;
57023;SDS011;42916;54.346;18.562;2023-07-22T10:59:51;1.70;;;1.60;;
57023;SDS011;42916;54.346;18.562;2023-07-22T11:02:25;1.70;;;1.60;;
57023;SDS011;42916;54.346;18.562;2023-07-22T11:04:55;1.90;;;1.40;;
57023;SDS011;42916;54.346;18.562;2023-07-22T11:07:34;3.00;;;1.40;;
57023;SDS011;42916;54.346;18.562;2023-07-22T11:10:18;1.40;;;1.30;;
57023;SDS011;42916;54.346;18.562;2023-07-22T11:12:45;2.10;;;1.20;;
57023;SDS011;42916;54.346;18.562;2023-07-22T11:15:14;1.80;;;1.30;;
57023;SDS011;42916;54.346;18.562;2023-07-22T11:17:42;2.10;;;1.40;;
57023;SDS011;42916;54.346;18.562;2023-07-22T11:20:09;1.70;;;1.30;;
57023;SDS011;42916;54.346;18.562;2023-07-22T11:22:39;1.50;;;1.20;;
57023;SDS011;42916;54.346;18.562;2023-07-22T11:25:07;1.30;;;1.20;;
57023;SDS011;42916;54.346;18.562;2023-07-22T11:27:34;1.50;;;1.20;;
57023;SDS011;42916;54.346;18.562;2023-07-22T11:30:02;2.20;;;1.50;;
57023;SDS011;42916;54.346;18.562;2023-07-22T11:32:29;2.10;;;1.40;;
57023;SDS011;42916;54.346;18.562;2023-07-22T11:34:56;1.80;;;1.40;;
57023;SDS011;42916;54.346;18.562;2023-07-22T11:37:23;2.00;;;1.40;;
57023;SDS011;42916;54.346;18.562;2023-07-22T11:39:50;2.40;;;1.30;;
57023;SDS011;42916;54.346;18.562;2023-07-22T11:42:16;1.40;;;1.30;;
57023;SDS011;42916;54.346;18.562;2023-07-22T11:44:43;3.50;;;1.40;;
57023;SDS011;42916;54.346;18.562;2023-07-22T11:47:10;1.60;;;1.30;;
57023;SDS011;42916;54.346;18.562;2023-07-22T11:49:39;2.50;;;1.30;;
57023;SDS011;42916;54.346;18.562;2023-07-22T11:52:08;1.50;;;1.20;;
57023;SDS011;42916;54.346;18.562;2023-07-22T11:54:44;1.20;;;1.10;;
57023;SDS011;42916;54.346;18.562;2023-07-22T11:59:44;1.70;;;1.30;;
57023;SDS011;42916;54.346;18.562;2023-07-22T12:02:12;1.70;;;1.30;;
57023;SDS011;42916;54.346;18.562;2023-07-22T12:04:44;1.50;;;1.30;;
57023;SDS011;42916;54.346;18.562;2023-07-22T12:09:53;1.30;;;1.20;;
57023;SDS011;42916;54.346;18.562;2023-07-22T12:12:21;1.80;;;1.20;;
57023;SDS011;42916;54.346;18.562;2023-07-22T12:15:01;1.70;;;1.00;;
57023;SDS011;42916;54.346;18.562;2023-07-22T12:20:26;1.30;;;1.10;;
57023;SDS011;42916;54.346;18.562;2023-07-22T12:22:54;2.70;;;1.20;;
57023;SDS011;42916;54.346;18.562;2023-07-22T12:25:22;3.80;;;1.30;;
57023;SDS011;42916;54.346;18.562;2023-07-22T12:27:49;2.10;;;1.10;;
57023;SDS011;42916;54.346;18.562;2023-07-22T12:30:19;1.90;;;1.00;;
57023;SDS011;42916;54.346;18.562;2023-07-22T12:32:46;2.10;;;1.40;;
57023;SDS011;42916;54.346;18.562;2023-07-22T12:35:14;1.70;;;1.30;;
57023;SDS011;42916;54.346;18.562;2023-07-22T12:37:40;4.90;;;2.00;;
57023;SDS011;42916;54.346;18.562;2023-07-22T12:40:07;4.50;;;1.90;;
57023;SDS011;42916;54.346;18.562;2023-07-22T12:42:35;3.80;;;1.90;;
57023;SDS011;42916;54.346;18.562;2023-07-22T12:45:04;4.70;;;1.90;;
57023;SDS011;42916;54.346;18.562;2023-07-22T12:47:32;4.20;;;2.10;;
57023;SDS011;42916;54.346;18.562;2023-07-22T12:49:58;2.30;;;2.00;;
57023;SDS011;42916;54.346;18.562;2023-07-22T12:52:25;3.30;;;2.00;;
57023;SDS011;42916;54.346;18.562;2023-07-22T12:54:52;2.40;;;1.80;;
57023;SDS011;42916;54.346;18.562;2023-07-22T12:57:19;4.10;;;1.80;;
57023;SDS011;42916;54.346;18.562;2023-07-22T12:59:45;4.80;;;1.60;;
57023;SDS011;42916;54.346;18.562;2023-07-22T13:02:12;2.10;;;1.80;;
57023;SDS011;42916;54.346;18.562;2023-07-22T13:04:39;2.70;;;2.00;;
57023;SDS011;42916;54.346;18.562;2023-07-22T13:07:06;3.30;;;1.70;;
57023;SDS011;42916;54.346;18.562;2023-07-22T13:09:32;2.70;;;1.70;;
57023;SDS011;42916;54.346;18.562;2023-07-22T13:11:59;3.20;;;1.80;;
57023;SDS011;42916;54.346;18.562;2023-07-22T13:14:26;3.20;;;2.20;;
57023;SDS011;42916;54.346;18.562;2023-07-22T13:16:53;2.60;;;1.80;;
57023;SDS011;42916;54.346;18.562;2023-07-22T13:19:19;2.40;;;1.50;;
57023;SDS011;42916;54.346;18.562;2023-07-22T13:21:46;3.80;;;2.10;;
57023;SDS011;42916;54.346;18.562;2023-07-22T13:24:13;2.40;;;2.00;;
57023;SDS011;42916;54.346;18.562;2023-07-22T13:26:40;2.50;;;2.00;;
57023;SDS011;42916;54.346;18.562;2023-07-22T13:29:07;4.10;;;1.80;;
57023;SDS011;42916;54.346;18.562;2023-07-22T13:31:35;2.50;;;1.80;;
57023;SDS011;42916;54.346;18.562;2023-07-22T13:34:02;2.80;;;1.60;;
57023;SDS011;42916;54.346;18.562;2023-07-22T13:36:28;2.90;;;1.60;;
57023;SDS011;42916;54.346;18.562;2023-07-22T13:38:55;3.60;;;1.80;;
57023;SDS011;42916;54.346;18.562;2023-07-22T13:41:22;3.10;;;1.80;;
57023;SDS011;42916;54.346;18.562;2023-07-22T13:43:48;2.00;;;1.60;;
57023;SDS011;42916;54.346;18.562;2023-07-22T13:46:15;3.00;;;1.40;;
57023;SDS011;42916;54.346;18.562;2023-07-22T13:48:42;2.50;;;1.90;;
57023;SDS011;42916;54.346;18.562;2023-07-22T13:51:08;1.40;;;1.30;;
57023;SDS011;42916;54.346;18.562;2023-07-22T13:53:35;3.00;;;1.60;;
57023;SDS011;42916;54.346;18.562;2023-07-22T13:56:02;2.10;;;1.60;;
57023;SDS011;42916;54.346;18.562;2023-07-22T13:58:29;2.40;;;1.60;;
57023;SDS011;42916;54.346;18.562;2023-07-22T14:00:56;5.40;;;1.60;;
57023;SDS011;42916;54.346;18.562;2023-07-22T14:03:23;3.60;;;2.00;;
57023;SDS011;42916;54.346;18.562;2023-07-22T14:05:49;2.10;;;1.70;;
57023;SDS011;42916;54.346;18.562;2023-07-22T14:08:16;2.20;;;1.30;;
57023;SDS011;42916;54.346;18.562;2023-07-22T14:10:43;2.00;;;1.60;;
57023;SDS011;42916;54.346;18.562;2023-07-22T14:13:10;3.10;;;1.40;;
57023;SDS011;42916;54.346;18.562;2023-07-22T14:15:36;1.80;;;1.40;;
57023;SDS011;42916;54.346;18.562;2023-07-22T14:18:03;3.10;;;1.50;;
57023;SDS011;42916;54.346;18.562;2023-07-22T14:20:30;2.40;;;1.50;;
57023;SDS011;42916;54.346;18.562;2023-07-22T14:22:57;1.70;;;1.30;;
57023;SDS011;42916;54.346;18.562;2023-07-22T14:25:24;3.00;;;1.50;;
57023;SDS011;42916;54.346;18.562;2023-07-22T14:27:50;3.00;;;1.30;;
57023;SDS011;42916;54.346;18.562;2023-07-22T14:30:17;2.20;;;1.40;;
57023;SDS011;42916;54.346;18.562;2023-07-22T14:32:44;2.10;;;1.30;;
57023;SDS011;42916;54.346;18.562;2023-07-22T14:35:11;2.90;;;1.90;;
57023;SDS011;42916;54.346;18.562;2023-07-22T14:37:38;2.90;;;1.30;;
57023;SDS011;42916;54.346;18.562;2023-07-22T14:40:05;2.10;;;1.40;;
57023;SDS011;42916;54.346;18.562;2023-07-22T14:42:32;9.40;;;1.90;;
57023;SDS011;42916;54.346;18.562;2023-07-22T14:44:59;1.80;;;1.30;;
57023;SDS011;42916;54.346;18.562;2023-07-22T14:47:25;2.40;;;1.50;;
57023;SDS011;42916;54.346;18.562;2023-07-22T14:49:52;2.30;;;1.40;;
57023;SDS011;42916;54.346;18.562;2023-07-22T14:52:19;2.80;;;1.40;;